Time;durP1;ratioP1;P1;durP2;ratioP2;P2;SDS_P1;SDS_P2;PMS_P1;PMS_P2;Temp;Humidity;BMP_temperature;BMP_pressure;BME280_temperature;BME280_humidity;BME280_pressure;Samples;Min_cycle;Max_cycle;Signal;HPM_P1;HPM_P2
2021/01/19 00:00:20;;;;;;;7.37;5.47;;;2.80;99.90;;;;;;5045789;28;20175;-71
2021/01/19 00:02:45;;;;;;;8.27;6.33;;;2.80;99.90;;;;;;5056938;28;20352;-72
2021/01/19 00:05:11;;;;;;;10.13;6.20;;;2.80;99.90;;;;;;5044532;28;21024;-73
2021/01/19 00:07:37;;;;;;;7.83;6.57;;;2.70;99.90;;;;;;5041907;28;20221;-73
2021/01/19 00:10:04;;;;;;;6.43;5.40;;;2.70;99.90;;;;;;5042795;28;20499;-72
2021/01/19 00:12:29;;;;;;;6.80;5.97;;;2.60;99.90;;;;;;5041402;28;20222;-73
2021/01/19 00:14:55;;;;;;;11.83;6.33;;;2.60;99.90;;;;;;5043212;28;20433;-72
2021/01/19 00:17:20;;;;;;;7.60;6.83;;;2.60;99.90;;;;;;5044491;28;20197;-72
2021/01/19 00:19:46;;;;;;;10.03;7.33;;;2.60;99.90;;;;;;5044323;28;20694;-72
2021/01/19 00:22:12;;;;;;;7.93;6.20;;;2.50;99.90;;;;;;5037728;28;20194;-73
2021/01/19 00:24:37;;;;;;;8.03;6.00;;;2.50;99.90;;;;;;5046287;28;20284;-72
2021/01/19 00:27:03;;;;;;;6.20;5.50;;;2.40;99.90;;;;;;5046075;28;20556;-72
2021/01/19 00:29:29;;;;;;;6.23;5.53;;;2.40;99.90;;;;;;5039943;28;20210;-73
2021/01/19 00:31:55;;;;;;;7.97;6.50;;;2.40;99.90;;;;;;5044384;28;20478;-73
2021/01/19 00:34:20;;;;;;;6.77;6.10;;;2.40;99.90;;;;;;5040549;28;20212;-72
2021/01/19 00:36:48;;;;;;;6.37;5.77;;;2.40;99.90;;;;;;5045849;28;20186;-72
2021/01/19 00:39:13;;;;;;;7.50;5.53;;;2.40;99.90;;;;;;5038600;28;20884;-72
2021/01/19 00:41:39;;;;;;;8.40;6.30;;;2.30;99.90;;;;;;5043225;28;20432;-72
2021/01/19 00:44:05;;;;;;;8.30;6.40;;;2.30;99.90;;;;;;5044658;28;20186;-72
2021/01/19 00:46:31;;;;;;;6.90;6.20;;;2.30;99.90;;;;;;5040167;28;20194;-72
2021/01/19 00:48:57;;;;;;;6.53;5.73;;;2.30;99.90;;;;;;5040009;28;20449;-72
2021/01/19 00:51:23;;;;;;;7.43;6.57;;;2.30;99.90;;;;;;5041164;28;20206;-72
2021/01/19 00:53:48;;;;;;;9.50;6.37;;;2.30;99.90;;;;;;5037696;28;20252;-72
2021/01/19 00:56:14;;;;;;;6.23;5.63;;;2.30;99.90;;;;;;5037937;28;20420;-71
2021/01/19 00:58:39;;;;;;;7.70;5.20;;;2.40;99.90;;;;;;5040200;28;20218;-72
2021/01/19 01:01:05;;;;;;;9.67;5.33;;;2.40;99.90;;;;;;5040774;28;20277;-71
2021/01/19 01:03:33;;;;;;;5.60;5.10;;;2.50;99.90;;;;;;5044414;28;20221;-72
2021/01/19 01:05:59;;;;;;;8.50;6.07;;;2.40;99.90;;;;;;5044155;28;20205;-72
2021/01/19 01:08:25;;;;;;;7.67;5.30;;;2.40;99.90;;;;;;5059517;28;20974;-72
2021/01/19 01:10:51;;;;;;;6.10;5.50;;;2.40;99.90;;;;;;5047148;28;20433;-72
2021/01/19 01:13:17;;;;;;;6.77;4.97;;;2.40;99.90;;;;;;5047491;28;20978;-72
2021/01/19 01:15:43;;;;;;;9.10;6.90;;;2.50;99.90;;;;;;5047195;28;20428;-73
2021/01/19 01:18:14;;;;;;;7.07;6.37;;;2.40;99.90;;;;;;5046921;28;20180;-72
2021/01/19 01:20:40;;;;;;;6.17;5.13;;;2.30;99.90;;;;;;5045593;28;20431;-71
2021/01/19 01:23:06;;;;;;;5.37;4.87;;;2.30;99.90;;;;;;5048504;28;20446;-72
2021/01/19 01:25:32;;;;;;;6.03;5.43;;;2.30;99.90;;;;;;5048981;28;20921;-72
2021/01/19 01:27:59;;;;;;;8.23;6.00;;;2.30;99.90;;;;;;5046224;28;20440;-71
2021/01/19 01:30:25;;;;;;;9.20;5.13;;;2.30;99.90;;;;;;5046553;28;20198;-72
2021/01/19 01:32:51;;;;;;;7.43;5.50;;;2.30;99.90;;;;;;5047100;28;20483;-72
2021/01/19 01:35:18;;;;;;;5.67;5.03;;;2.20;99.90;;;;;;5044129;28;20569;-73
2021/01/19 01:37:45;;;;;;;5.37;4.87;;;2.30;99.90;;;;;;5042040;28;20428;-72
2021/01/19 01:40:12;;;;;;;6.23;5.63;;;2.20;99.90;;;;;;5045030;28;20449;-73
2021/01/19 01:42:38;;;;;;;8.80;5.80;;;2.20;99.90;;;;;;5042778;28;20895;-72
2021/01/19 01:45:04;;;;;;;7.60;5.60;;;2.20;99.90;;;;;;5044771;28;20448;-72
2021/01/19 01:47:30;;;;;;;6.13;5.00;;;2.20;99.90;;;;;;5048467;28;20188;-72
2021/01/19 01:49:56;;;;;;;6.17;4.90;;;2.20;99.90;;;;;;5045830;28;20448;-71
2021/01/19 01:52:23;;;;;;;7.20;4.87;;;2.30;99.90;;;;;;5042739;28;21056;-72
2021/01/19 01:54:50;;;;;;;5.00;4.43;;;2.30;99.90;;;;;;5046444;28;20522;-72
2021/01/19 01:57:19;;;;;;;5.83;4.40;;;2.30;99.90;;;;;;5045921;28;20532;-72
2021/01/19 01:59:59;;;;;;;6.70;5.60;;;2.40;99.90;;;;;;5048247;28;20533;-71
2021/01/19 02:02:25;;;;;;;8.10;5.10;;;2.30;99.90;;;;;;5035296;28;20461;-72
2021/01/19 02:04:50;;;;;;;8.00;7.20;;;2.30;99.90;;;;;;5045212;28;20909;-73
2021/01/19 02:07:38;;;;;;;6.20;4.60;;;2.30;99.90;;;;;;5042283;28;20198;-72
2021/01/19 02:10:20;;;;;;;7.90;5.53;;;2.20;99.90;;;;;;5044887;28;20517;-72
2021/01/19 02:12:57;;;;;;;6.50;4.50;;;2.30;99.90;;;;;;5038494;28;20468;-72
2021/01/19 02:15:33;;;;;;;6.63;4.73;;;2.30;99.90;;;;;;5041029;28;20470;-72
2021/01/19 02:18:47;;;;;;;7.40;5.33;;;2.30;99.90;;;;;;5042570;28;20432;-71
2021/01/19 02:21:24;;;;;;;6.60;5.60;;;2.30;99.90;;;;;;5047662;28;20516;-72
2021/01/19 02:24:09;;;;;;;6.20;5.20;;;2.30;99.90;;;;;;5044694;28;20533;-71
2021/01/19 02:27:02;;;;;;;7.47;5.50;;;2.40;99.90;;;;;;5046559;28;20433;-72
2021/01/19 02:29:51;;;;;;;7.03;5.37;;;2.40;99.90;;;;;;5042855;28;20449;-70
2021/01/19 02:32:49;;;;;;;8.20;5.73;;;2.40;99.90;;;;;;5042601;28;20493;-72
2021/01/19 02:35:34;;;;;;;5.80;4.80;;;2.50;99.90;;;;;;5042705;28;20424;-73
2021/01/19 02:38:25;;;;;;;5.23;4.53;;;2.50;99.90;;;;;;5038236;28;20422;-72
2021/01/19 02:40:55;;;;;;;6.27;5.20;;;2.60;99.90;;;;;;5012398;28;20425;-72
2021/01/19 02:43:25;;;;;;;8.53;5.10;;;2.60;99.90;;;;;;5034895;28;20448;-71
2021/01/19 02:45:52;;;;;;;4.87;4.43;;;2.60;99.90;;;;;;5042874;28;20844;-71
2021/01/19 02:48:18;;;;;;;5.80;5.30;;;2.60;99.90;;;;;;5047297;28;20425;-71
2021/01/19 02:50:44;;;;;;;5.23;4.73;;;2.60;99.90;;;;;;5046153;28;20944;-73
2021/01/19 02:53:11;;;;;;;5.87;5.20;;;2.70;99.90;;;;;;5045968;28;20509;-72
2021/01/19 02:55:38;;;;;;;5.73;5.10;;;2.60;99.90;;;;;;5035570;28;20444;-72
2021/01/19 02:58:16;;;;;;;8.10;4.80;;;2.70;99.90;;;;;;5047084;28;20438;-72
2021/01/19 03:01:03;;;;;;;6.53;4.90;;;2.70;99.90;;;;;;5039549;28;20421;-72
2021/01/19 03:03:37;;;;;;;7.00;5.13;;;2.70;99.90;;;;;;5043078;28;20413;-71
2021/01/19 03:06:07;;;;;;;4.47;3.83;;;2.70;99.90;;;;;;5042518;28;20421;-71
2021/01/19 03:08:34;;;;;;;5.70;5.10;;;2.80;99.90;;;;;;5041602;28;20481;-71
2021/01/19 03:11:02;;;;;;;5.00;4.30;;;2.80;99.90;;;;;;5046430;28;20514;-72
2021/01/19 03:13:28;;;;;;;4.93;4.37;;;2.80;99.90;;;;;;5047650;28;20416;-72
2021/01/19 03:16:08;;;;;;;6.40;5.00;;;2.80;99.90;;;;;;5044479;28;20432;-72
2021/01/19 03:18:34;;;;;;;5.83;4.50;;;2.80;99.90;;;;;;5047738;28;20432;-71
2021/01/19 03:21:02;;;;;;;7.73;5.10;;;2.80;99.90;;;;;;5040064;28;20425;-71
2021/01/19 03:23:28;;;;;;;5.73;5.23;;;2.80;99.90;;;;;;5045689;28;20425;-71
2021/01/19 03:25:53;;;;;;;15.83;5.27;;;2.80;99.90;;;;;;5044857;28;20436;-73
2021/01/19 03:28:19;;;;;;;10.50;5.37;;;2.70;99.90;;;;;;5044245;28;20205;-71
2021/01/19 03:30:45;;;;;;;6.23;5.00;;;2.70;99.90;;;;;;5042974;28;20522;-72
2021/01/19 03:33:10;;;;;;;5.90;5.30;;;2.70;99.90;;;;;;5044805;28;20208;-72
2021/01/19 03:35:39;;;;;;;6.47;4.90;;;2.70;99.90;;;;;;5046071;28;20185;-72
2021/01/19 03:38:05;;;;;;;9.60;6.40;;;2.60;99.90;;;;;;5041282;28;20683;-73
2021/01/19 03:40:31;;;;;;;5.73;5.07;;;2.60;99.90;;;;;;5045886;28;20814;-73
2021/01/19 03:42:56;;;;;;;5.57;4.73;;;2.60;99.90;;;;;;5041211;28;20490;-72
2021/01/19 03:45:22;;;;;;;5.13;4.63;;;2.60;99.90;;;;;;5043773;28;20660;-74
2021/01/19 03:47:47;;;;;;;6.43;5.30;;;2.60;99.90;;;;;;5056597;28;20602;-72
2021/01/19 03:50:13;;;;;;;11.70;6.57;;;2.60;99.90;;;;;;5046448;28;20202;-73
2021/01/19 03:52:38;;;;;;;7.10;6.07;;;2.60;99.90;;;;;;5043522;28;20207;-72
2021/01/19 03:55:05;;;;;;;7.30;5.50;;;2.60;99.90;;;;;;5045051;28;20194;-72
2021/01/19 03:57:30;;;;;;;6.50;4.50;;;2.60;99.90;;;;;;5045005;28;20652;-72
2021/01/19 03:59:56;;;;;;;6.77;4.60;;;2.50;99.90;;;;;;5045419;28;20448;-72
2021/01/19 04:02:21;;;;;;;8.10;4.83;;;2.60;99.90;;;;;;5038844;28;20191;-72
2021/01/19 04:04:48;;;;;;;7.60;6.50;;;2.50;99.90;;;;;;5043736;28;20194;-71
2021/01/19 04:07:14;;;;;;;6.90;5.00;;;2.50;99.90;;;;;;5042582;28;20197;-71
2021/01/19 04:09:40;;;;;;;8.67;5.20;;;2.50;99.90;;;;;;5046700;28;20945;-72
2021/01/19 04:12:06;;;;;;;6.40;4.90;;;2.50;99.90;;;;;;5044094;28;21050;-71
2021/01/19 04:14:31;;;;;;;5.90;4.67;;;2.50;99.90;;;;;;5042418;28;20700;-71
2021/01/19 04:16:57;;;;;;;8.90;4.57;;;2.50;99.90;;;;;;5045089;28;20621;-72
2021/01/19 04:19:22;;;;;;;6.53;4.37;;;2.50;99.90;;;;;;5035163;28;20560;-72
2021/01/19 04:21:48;;;;;;;6.27;4.37;;;2.50;99.90;;;;;;5046283;28;20270;-72
2021/01/19 04:24:13;;;;;;;5.20;4.30;;;2.50;99.90;;;;;;5040327;28;20205;-72
2021/01/19 04:26:39;;;;;;;6.37;4.30;;;2.50;99.90;;;;;;5045443;28;20194;-71
2021/01/19 04:29:04;;;;;;;5.03;4.53;;;2.60;99.90;;;;;;5039794;28;20266;-72
2021/01/19 04:31:30;;;;;;;5.33;4.20;;;2.60;99.90;;;;;;5043218;28;20377;-71
2021/01/19 04:33:55;;;;;;;4.50;4.10;;;2.60;99.90;;;;;;5045038;28;20186;-71
2021/01/19 04:36:21;;;;;;;6.73;5.10;;;2.60;99.90;;;;;;5039445;28;20190;-72
2021/01/19 04:38:46;;;;;;;5.03;3.80;;;2.60;99.90;;;;;;5048310;28;20217;-72
2021/01/19 04:41:13;;;;;;;5.20;4.10;;;2.60;99.90;;;;;;5051594;28;20224;-71
2021/01/19 04:43:41;;;;;;;5.40;4.30;;;2.60;99.90;;;;;;5046956;28;20193;-72
2021/01/19 04:46:09;;;;;;;6.80;4.80;;;2.60;99.90;;;;;;5052654;28;20457;-72
2021/01/19 04:48:35;;;;;;;6.53;4.10;;;2.60;99.90;;;;;;5048510;28;20445;-71
2021/01/19 04:51:04;;;;;;;6.10;4.57;;;2.60;99.90;;;;;;5064587;28;20432;-73
2021/01/19 04:53:35;;;;;;;6.13;4.50;;;2.60;99.90;;;;;;5049822;28;20424;-71
2021/01/19 04:56:03;;;;;;;4.10;3.70;;;2.60;99.90;;;;;;5050283;28;20529;-72
2021/01/19 04:58:31;;;;;;;5.00;4.27;;;2.60;99.90;;;;;;5048316;28;20847;-72
2021/01/19 05:01:07;;;;;;;5.10;4.60;;;2.60;99.90;;;;;;5065132;28;20493;-72
2021/01/19 05:03:42;;;;;;;3.93;3.60;;;2.60;99.90;;;;;;5052500;28;20904;-72
2021/01/19 05:06:14;;;;;;;5.93;4.33;;;2.70;99.90;;;;;;5049942;28;20469;-73
2021/01/19 05:08:43;;;;;;;4.73;3.90;;;2.60;99.90;;;;;;5052468;28;20443;-72
2021/01/19 05:11:21;;;;;;;7.57;4.33;;;2.60;99.90;;;;;;5047885;28;20921;-73
2021/01/19 05:13:58;;;;;;;5.13;3.87;;;2.60;99.90;;;;;;5046311;28;20421;-73
2021/01/19 05:16:30;;;;;;;8.70;4.43;;;2.60;99.90;;;;;;5050413;28;20420;-72
2021/01/19 05:18:57;;;;;;;4.17;3.77;;;2.60;99.90;;;;;;5050763;28;20444;-72
2021/01/19 05:21:23;;;;;;;5.77;4.07;;;2.60;99.90;;;;;;5049604;28;20428;-72
2021/01/19 05:23:49;;;;;;;3.67;3.20;;;2.60;99.90;;;;;;5051802;28;20940;-71
2021/01/19 05:26:16;;;;;;;7.03;4.00;;;2.60;99.90;;;;;;5048792;28;20431;-71
2021/01/19 05:28:46;;;;;;;5.63;3.90;;;2.60;99.90;;;;;;5047321;28;20214;-73
2021/01/19 05:31:15;;;;;;;6.80;3.97;;;2.60;99.90;;;;;;5059221;28;20434;-72
2021/01/19 05:33:41;;;;;;;7.63;3.97;;;2.60;99.90;;;;;;5049539;28;21560;-72
2021/01/19 05:36:11;;;;;;;7.10;4.90;;;2.60;99.90;;;;;;5050709;28;20419;-71
2021/01/19 05:38:55;;;;;;;5.53;3.97;;;2.50;99.90;;;;;;5046139;28;20527;-71
2021/01/19 05:41:32;;;;;;;9.00;4.20;;;2.60;99.90;;;;;;5046106;28;20439;-72
2021/01/19 05:44:17;;;;;;;5.60;3.80;;;2.60;99.90;;;;;;5052354;28;20439;-72
2021/01/19 05:46:44;;;;;;;5.07;3.70;;;2.60;99.90;;;;;;5049028;28;20477;-72
2021/01/19 05:49:18;;;;;;;7.07;4.17;;;2.60;99.90;;;;;;5043346;28;20452;-71
2021/01/19 05:51:46;;;;;;;4.87;3.90;;;2.50;99.90;;;;;;5045763;28;20460;-71
2021/01/19 05:54:21;;;;;;;5.53;3.90;;;2.50;99.90;;;;;;5049203;28;20457;-71
2021/01/19 05:56:49;;;;;;;5.57;4.50;;;2.40;99.90;;;;;;5045934;28;20464;-72
2021/01/19 05:59:30;;;;;;;8.93;4.03;;;2.50;99.90;;;;;;5044113;28;20470;-71
2021/01/19 06:02:03;;;;;;;4.73;3.30;;;2.50;99.90;;;;;;5039214;28;20444;-74
2021/01/19 06:04:34;;;;;;;4.60;3.70;;;2.40;99.90;;;;;;5043860;28;20447;-73
2021/01/19 06:07:01;;;;;;;5.23;3.80;;;2.50;99.90;;;;;;5041591;28;20495;-73
2021/01/19 06:09:26;;;;;;;5.20;4.33;;;2.40;99.90;;;;;;5035577;28;20457;-72
2021/01/19 06:11:54;;;;;;;4.23;3.83;;;2.40;99.90;;;;;;5046155;28;20494;-72
2021/01/19 06:14:24;;;;;;;4.97;4.07;;;2.40;99.90;;;;;;5041101;28;20303;-72
2021/01/19 06:16:50;;;;;;;5.47;3.60;;;2.40;99.90;;;;;;5041075;28;20459;-73
2021/01/19 06:19:29;;;;;;;4.13;3.80;;;2.40;99.90;;;;;;5042015;28;20445;-72
2021/01/19 06:21:58;;;;;;;6.10;3.93;;;2.50;99.90;;;;;;5040398;28;20651;-72
2021/01/19 06:24:33;;;;;;;9.20;4.80;;;2.40;99.90;;;;;;5045927;28;20807;-72
2021/01/19 06:27:00;;;;;;;5.87;4.03;;;2.40;99.90;;;;;;5042709;28;20487;-75
2021/01/19 06:29:27;;;;;;;4.53;3.70;;;2.40;99.90;;;;;;5059615;28;20454;-73
2021/01/19 06:31:55;;;;;;;4.93;4.27;;;2.40;99.90;;;;;;5045664;28;20472;-73
2021/01/19 06:34:26;;;;;;;6.20;4.47;;;2.40;99.90;;;;;;5045269;28;20431;-73
2021/01/19 06:36:51;;;;;;;6.60;4.00;;;2.40;99.90;;;;;;5040807;28;20965;-73
2021/01/19 06:39:55;;;;;;;4.90;3.90;;;2.40;99.90;;;;;;5043825;28;20448;-72
2021/01/19 06:42:28;;;;;;;4.23;3.80;;;2.40;99.90;;;;;;5028283;28;20198;-71
2021/01/19 06:44:59;;;;;;;4.30;3.90;;;2.40;99.90;;;;;;5047201;28;20912;-71
2021/01/19 06:47:25;;;;;;;4.57;3.83;;;2.40;99.90;;;;;;5040946;28;20429;-72
2021/01/19 06:49:52;;;;;;;7.30;4.23;;;2.40;99.90;;;;;;5052486;28;20457;-73
2021/01/19 06:52:19;;;;;;;7.97;3.90;;;2.40;99.90;;;;;;5040294;28;20467;-71
2021/01/19 06:54:54;;;;;;;5.40;4.10;;;2.40;99.90;;;;;;5045213;28;20929;-73
2021/01/19 06:57:32;;;;;;;4.77;3.87;;;2.40;99.90;;;;;;5038261;28;20460;-72
2021/01/19 07:00:11;;;;;;;6.10;4.10;;;2.40;99.90;;;;;;5040872;28;20451;-71
2021/01/19 07:02:40;;;;;;;4.40;3.60;;;2.40;99.90;;;;;;5062318;28;20455;-74
2021/01/19 07:05:11;;;;;;;4.23;3.30;;;2.40;99.90;;;;;;5039853;28;20483;-73
2021/01/19 07:08:24;;;;;;;4.70;3.67;;;2.40;99.90;;;;;;5047543;28;20417;-72
2021/01/19 07:10:52;;;;;;;4.07;3.50;;;2.40;99.90;;;;;;5043511;28;20967;-71
2021/01/19 07:13:24;;;;;;;4.23;3.50;;;2.30;99.90;;;;;;5046560;28;20503;-73
2021/01/19 07:15:56;;;;;;;4.30;3.87;;;2.30;99.90;;;;;;5042635;28;20443;-72
2021/01/19 07:18:48;;;;;;;3.60;3.20;;;2.30;99.90;;;;;;5040421;28;20969;-72
2021/01/19 07:21:15;;;;;;;5.80;3.53;;;2.30;99.90;;;;;;5041100;28;20468;-72
2021/01/19 07:23:46;;;;;;;4.00;3.40;;;2.30;99.90;;;;;;5046025;28;20444;-73
2021/01/19 07:26:20;;;;;;;3.87;3.57;;;2.30;99.90;;;;;;5046483;28;20495;-73
2021/01/19 07:28:48;;;;;;;4.43;3.50;;;2.30;99.90;;;;;;5046653;28;20455;-72
2021/01/19 07:31:19;;;;;;;6.00;3.97;;;2.30;99.90;;;;;;5045154;28;20464;-72
2021/01/19 07:33:51;;;;;;;8.80;3.70;;;2.30;99.90;;;;;;5046947;28;20432;-72
2021/01/19 07:36:18;;;;;;;4.60;4.10;;;2.30;99.90;;;;;;5046812;28;20421;-73
2021/01/19 07:38:44;;;;;;;3.90;3.33;;;2.30;99.90;;;;;;5047095;28;20437;-72
2021/01/19 07:41:10;;;;;;;7.27;3.80;;;2.30;99.90;;;;;;5046882;28;20479;-72
2021/01/19 07:43:38;;;;;;;6.67;4.17;;;2.30;99.90;;;;;;5042813;28;20503;-70
2021/01/19 07:46:04;;;;;;;4.40;3.27;;;2.20;99.90;;;;;;5044012;28;20441;-73
2021/01/19 07:48:35;;;;;;;4.10;3.07;;;2.20;99.90;;;;;;5045700;28;20445;-73
2021/01/19 07:51:14;;;;;;;4.20;3.80;;;2.30;99.90;;;;;;5042658;28;20519;-74
2021/01/19 07:54:06;;;;;;;6.20;4.07;;;2.30;99.90;;;;;;5046409;28;20873;-72
2021/01/19 07:56:32;;;;;;;10.17;3.80;;;2.30;99.90;;;;;;5035000;28;20456;-71
2021/01/19 07:58:59;;;;;;;3.17;2.87;;;2.20;99.90;;;;;;5043519;28;20844;-71
2021/01/19 08:01:36;;;;;;;4.20;3.80;;;2.20;99.90;;;;;;5045907;28;20488;-73
2021/01/19 08:04:13;;;;;;;3.70;3.20;;;2.30;99.90;;;;;;5058148;28;20508;-72
2021/01/19 08:06:40;;;;;;;3.83;3.23;;;2.20;99.90;;;;;;5045454;28;20783;-72
2021/01/19 08:09:13;;;;;;;4.33;3.70;;;2.30;99.90;;;;;;5054151;28;20476;-72
2021/01/19 08:11:41;;;;;;;4.40;4.00;;;2.30;99.90;;;;;;5039950;28;20844;-73
2021/01/19 08:14:06;;;;;;;5.83;5.40;;;2.30;99.90;;;;;;5042425;28;20956;-72
2021/01/19 08:16:35;;;;;;;3.30;3.00;;;2.30;99.90;;;;;;5046139;28;20413;-72
2021/01/19 08:19:05;;;;;;;4.00;3.60;;;2.30;99.90;;;;;;5039556;28;20200;-73
2021/01/19 08:21:35;;;;;;;7.17;3.83;;;2.30;99.90;;;;;;5043587;28;20446;-72
2021/01/19 08:24:08;;;;;;;3.60;3.00;;;2.30;99.90;;;;;;5045975;28;20432;-73
2021/01/19 08:26:37;;;;;;;5.73;3.50;;;2.30;99.90;;;;;;5043781;28;20839;-72
2021/01/19 08:29:06;;;;;;;4.70;3.60;;;2.30;99.90;;;;;;5044820;28;20888;-72
2021/01/19 08:31:36;;;;;;;4.57;3.60;;;2.30;99.90;;;;;;5056019;28;20474;-72
2021/01/19 08:34:06;;;;;;;4.13;2.90;;;2.20;99.90;;;;;;5053552;28;20424;-72
2021/01/19 08:36:34;;;;;;;3.77;3.47;;;2.20;99.90;;;;;;5040182;28;20469;-72
2021/01/19 08:39:03;;;;;;;5.27;3.80;;;2.20;99.90;;;;;;5045923;28;20439;-73
2021/01/19 08:41:30;;;;;;;3.63;3.30;;;2.20;99.90;;;;;;5044837;28;20432;-72
2021/01/19 08:44:03;;;;;;;5.53;3.60;;;2.20;99.90;;;;;;5045390;28;20421;-73
2021/01/19 08:46:32;;;;;;;6.47;3.73;;;2.30;99.90;;;;;;5045839;28;20428;-73
2021/01/19 08:49:31;;;;;;;4.63;3.57;;;2.30;99.90;;;;;;5040463;28;20468;-74
2021/01/19 08:51:56;;;;;;;4.10;3.70;;;2.40;99.90;;;;;;5017856;28;20496;-72
2021/01/19 08:54:22;;;;;;;4.67;3.60;;;2.30;99.90;;;;;;5043701;28;20477;-72
2021/01/19 08:56:47;;;;;;;7.23;3.30;;;2.30;99.90;;;;;;5039593;28;20206;-71
2021/01/19 08:59:14;;;;;;;4.87;3.50;;;2.30;99.90;;;;;;5043961;28;20218;-73
2021/01/19 09:01:53;;;;;;;5.70;3.37;;;2.30;99.90;;;;;;5044923;28;20191;-72
2021/01/19 09:04:26;;;;;;;8.40;4.87;;;2.30;99.90;;;;;;5037759;28;20443;-72
2021/01/19 09:06:53;;;;;;;5.70;3.73;;;2.20;99.90;;;;;;5037675;28;20445;-73
2021/01/19 09:09:22;;;;;;;5.70;4.00;;;2.20;99.90;;;;;;5036755;28;20473;-72
2021/01/19 09:11:51;;;;;;;5.10;3.80;;;2.10;99.90;;;;;;5043631;28;20911;-72
2021/01/19 09:14:17;;;;;;;5.30;3.80;;;2.10;99.90;;;;;;5043653;28;20430;-72
2021/01/19 09:16:42;;;;;;;5.40;3.93;;;2.00;99.90;;;;;;5044705;28;20996;-72
2021/01/19 09:19:09;;;;;;;5.23;3.80;;;2.00;99.90;;;;;;5044163;28;20253;-73
2021/01/19 09:21:38;;;;;;;4.97;3.53;;;2.00;99.90;;;;;;5039543;28;20179;-72
2021/01/19 09:24:21;;;;;;;7.90;4.50;;;1.90;99.90;;;;;;5047235;28;20436;-72
2021/01/19 09:26:59;;;;;;;6.07;4.77;;;1.80;99.90;;;;;;5043503;28;20778;-72
2021/01/19 09:29:32;;;;;;;6.50;4.23;;;1.70;99.90;;;;;;5040067;28;20492;-73
2021/01/19 09:31:59;;;;;;;4.60;3.07;;;1.70;99.90;;;;;;5044277;28;20500;-72
2021/01/19 09:34:26;;;;;;;5.13;4.10;;;1.70;99.90;;;;;;5049224;28;20485;-71
2021/01/19 09:36:51;;;;;;;4.67;4.23;;;1.70;99.90;;;;;;5042991;28;20535;-72
2021/01/19 09:39:28;;;;;;;5.67;4.20;;;1.80;99.90;;;;;;5049534;28;20519;-73
2021/01/19 09:41:56;;;;;;;5.60;4.60;;;1.80;99.90;;;;;;5048769;28;20204;-72
2021/01/19 09:44:22;;;;;;;8.63;4.20;;;1.90;99.90;;;;;;5036886;28;20445;-72
2021/01/19 09:46:52;;;;;;;4.23;3.83;;;2.00;99.90;;;;;;5046815;28;20488;-72
2021/01/19 09:49:19;;;;;;;3.73;3.43;;;2.00;99.90;;;;;;5039593;28;20447;-72
2021/01/19 09:51:45;;;;;;;5.13;3.23;;;2.10;99.90;;;;;;5057188;28;20515;-73
2021/01/19 09:54:10;;;;;;;5.67;3.27;;;2.10;99.90;;;;;;5047032;28;20957;-72
2021/01/19 09:56:36;;;;;;;9.00;3.50;;;2.20;99.90;;;;;;5044573;28;20252;-72
2021/01/19 09:59:07;;;;;;;3.33;3.00;;;2.30;99.90;;;;;;5045975;28;20233;-73
2021/01/19 10:01:33;;;;;;;6.80;3.60;;;2.30;99.90;;;;;;5048322;28;20224;-72
2021/01/19 10:03:59;;;;;;;4.80;3.73;;;2.30;99.90;;;;;;5040443;28;20447;-72
2021/01/19 10:06:26;;;;;;;4.10;2.73;;;2.40;99.90;;;;;;5043184;28;20513;-73
2021/01/19 10:08:56;;;;;;;4.00;3.53;;;2.40;99.90;;;;;;5046049;28;20205;-72
2021/01/19 10:11:32;;;;;;;7.27;3.93;;;2.40;99.90;;;;;;5056511;28;20987;-71
2021/01/19 10:14:17;;;;;;;6.93;3.77;;;2.50;99.90;;;;;;5046814;28;20536;-73
2021/01/19 10:16:49;;;;;;;4.43;3.50;;;2.50;99.90;;;;;;5036353;28;20456;-72
2021/01/19 10:19:22;;;;;;;3.80;3.40;;;2.50;99.90;;;;;;5055849;28;20441;-71
2021/01/19 10:21:53;;;;;;;3.90;3.10;;;2.50;99.90;;;;;;5046915;28;20461;-72
2021/01/19 10:24:20;;;;;;;4.57;3.43;;;2.50;99.90;;;;;;5043253;28;20457;-73
2021/01/19 10:27:18;;;;;;;4.90;3.33;;;2.40;99.90;;;;;;5046240;28;20948;-73
2021/01/19 10:29:44;;;;;;;7.47;3.73;;;2.40;99.90;;;;;;4979764;28;20537;-73
2021/01/19 10:32:13;;;;;;;5.73;3.20;;;2.40;99.90;;;;;;4992187;28;20470;-73
2021/01/19 10:34:49;;;;;;;5.20;3.93;;;2.40;99.90;;;;;;4985671;28;20994;-73
2021/01/19 10:37:15;;;;;;;6.80;3.67;;;2.40;99.90;;;;;;4986042;28;20430;-72
2021/01/19 10:39:49;;;;;;;6.53;4.47;;;2.30;99.90;;;;;;4983538;28;20554;-72
2021/01/19 10:42:29;;;;;;;4.67;3.47;;;2.30;99.90;;;;;;4970038;28;20995;-73
2021/01/19 10:45:02;;;;;;;8.60;4.17;;;2.30;99.90;;;;;;4982608;28;20534;-72
2021/01/19 10:47:41;;;;;;;4.07;3.37;;;2.20;99.90;;;;;;4985849;28;20452;-72
2021/01/19 10:50:15;;;;;;;5.53;3.57;;;2.20;99.90;;;;;;4985879;28;20483;-75
2021/01/19 10:52:41;;;;;;;6.60;3.80;;;2.20;99.90;;;;;;4991102;28;20515;-72
2021/01/19 10:55:09;;;;;;;4.77;4.20;;;2.20;99.90;;;;;;4969381;28;20524;-74
2021/01/19 10:57:36;;;;;;;4.17;3.53;;;2.10;99.90;;;;;;4970409;28;20545;-73
2021/01/19 11:00:02;;;;;;;10.00;4.20;;;2.10;99.90;;;;;;4985770;28;20451;-72
2021/01/19 11:02:30;;;;;;;4.30;3.70;;;2.00;99.90;;;;;;4985916;28;20432;-72
2021/01/19 11:04:56;;;;;;;5.57;4.67;;;2.00;99.90;;;;;;4983526;28;20482;-72
2021/01/19 11:07:21;;;;;;;5.13;3.17;;;1.90;99.90;;;;;;5041985;28;20957;-72
2021/01/19 11:09:47;;;;;;;5.23;3.83;;;1.90;99.90;;;;;;5049778;28;20890;-72
2021/01/19 11:12:16;;;;;;;8.03;4.40;;;1.80;99.90;;;;;;5051694;28;20682;-72
2021/01/19 11:14:42;;;;;;;4.50;3.67;;;1.80;99.90;;;;;;5046084;28;20189;-72
2021/01/19 11:17:07;;;;;;;5.50;4.40;;;1.80;99.90;;;;;;5040586;28;20812;-72
2021/01/19 11:19:33;;;;;;;5.20;3.50;;;1.70;99.90;;;;;;5046975;28;20236;-72
2021/01/19 11:21:58;;;;;;;6.20;4.20;;;1.70;99.90;;;;;;5046027;28;20616;-73
2021/01/19 11:24:24;;;;;;;6.87;5.60;;;1.60;99.90;;;;;;5042068;28;20265;-72
2021/01/19 11:26:49;;;;;;;6.07;4.57;;;1.60;99.90;;;;;;5044447;28;20273;-72
2021/01/19 11:29:15;;;;;;;5.43;3.90;;;1.60;99.90;;;;;;5046603;28;20285;-72
2021/01/19 11:31:40;;;;;;;9.40;5.80;;;1.50;99.90;;;;;;5042446;28;20214;-71
2021/01/19 11:34:08;;;;;;;6.83;4.70;;;1.50;99.90;;;;;;5043309;28;20659;-71
2021/01/19 11:36:36;;;;;;;5.83;4.67;;;1.50;99.90;;;;;;5041136;28;20225;-71
2021/01/19 11:39:07;;;;;;;6.90;5.30;;;1.40;99.90;;;;;;5038842;28;20469;-71
2021/01/19 11:41:35;;;;;;;7.37;5.53;;;1.40;99.90;;;;;;5057909;28;20488;-72
2021/01/19 11:44:01;;;;;;;6.33;4.67;;;1.40;99.90;;;;;;5037967;28;20523;-71
2021/01/19 11:46:28;;;;;;;7.00;4.10;;;1.40;99.90;;;;;;5037577;28;20528;-72
2021/01/19 11:48:57;;;;;;;6.53;4.90;;;1.40;99.90;;;;;;5041989;28;20231;-72
2021/01/19 11:51:27;;;;;;;8.40;4.70;;;1.40;99.90;;;;;;5044693;28;21259;-71
2021/01/19 11:53:55;;;;;;;9.00;5.50;;;1.40;99.90;;;;;;5035921;28;20425;-74
2021/01/19 11:56:31;;;;;;;8.33;5.50;;;1.40;99.90;;;;;;5040610;28;21158;-72
2021/01/19 11:58:56;;;;;;;11.27;5.93;;;1.30;99.90;;;;;;5046010;28;20464;-72
2021/01/19 12:01:22;;;;;;;10.60;6.33;;;1.30;99.90;;;;;;5045002;28;20461;-71
2021/01/19 12:03:48;;;;;;;7.87;6.13;;;1.30;99.90;;;;;;5046493;28;20536;-72
2021/01/19 12:06:17;;;;;;;6.20;5.60;;;1.30;99.90;;;;;;5045523;28;20238;-72
2021/01/19 12:08:46;;;;;;;8.37;5.30;;;1.30;99.90;;;;;;5046459;28;20477;-72
2021/01/19 12:11:11;;;;;;;8.00;6.47;;;1.30;99.90;;;;;;5044640;28;20490;-72
2021/01/19 12:13:37;;;;;;;5.77;4.40;;;1.40;99.90;;;;;;5054029;28;20461;-72
2021/01/19 12:16:08;;;;;;;6.13;5.53;;;1.40;99.90;;;;;;5043781;28;20179;-71
2021/01/19 12:18:34;;;;;;;8.03;6.40;;;1.40;99.90;;;;;;5045874;28;20985;-70
2021/01/19 12:21:01;;;;;;;5.60;4.80;;;1.50;99.90;;;;;;5043518;28;20432;-71
2021/01/19 12:23:26;;;;;;;12.30;6.03;;;1.40;99.90;;;;;;5040339;28;20591;-72
2021/01/19 12:25:55;;;;;;;5.47;4.30;;;1.40;99.90;;;;;;5046148;28;20535;-72
2021/01/19 12:28:21;;;;;;;12.53;6.93;;;1.40;99.90;;;;;;5046030;28;20683;-70
2021/01/19 12:30:46;;;;;;;7.00;5.60;;;1.40;99.90;;;;;;5038226;28;20512;-71
2021/01/19 12:33:12;;;;;;;10.80;5.80;;;1.40;99.90;;;;;;5044919;28;20244;-71
2021/01/19 12:35:38;;;;;;;7.93;5.53;;;1.40;99.90;;;;;;5038906;28;20203;-72
2021/01/19 12:38:03;;;;;;;11.10;6.67;;;1.40;99.90;;;;;;5043556;28;20182;-75
2021/01/19 12:40:29;;;;;;;9.30;6.50;;;1.40;99.90;;;;;;5043796;28;20189;-71
2021/01/19 12:42:54;;;;;;;5.97;5.13;;;1.40;99.90;;;;;;5045808;28;20193;-70
2021/01/19 12:45:20;;;;;;;5.50;4.80;;;1.50;99.90;;;;;;5043764;28;20189;-71
2021/01/19 12:47:50;;;;;;;6.93;6.17;;;1.50;99.90;;;;;;5045930;28;20187;-71
2021/01/19 12:50:16;;;;;;;7.13;5.03;;;1.50;99.90;;;;;;5044465;28;20343;-72
2021/01/19 12:52:41;;;;;;;6.97;5.90;;;1.50;99.90;;;;;;5045134;28;20464;-71
2021/01/19 12:55:07;;;;;;;6.13;5.27;;;1.50;99.90;;;;;;5042926;28;20178;-72
2021/01/19 12:57:33;;;;;;;9.43;5.20;;;1.60;99.90;;;;;;5058060;28;20278;-72
2021/01/19 12:59:58;;;;;;;6.43;5.53;;;1.60;99.90;;;;;;5048953;28;20457;-72
2021/01/19 13:02:24;;;;;;;6.40;5.60;;;1.60;99.90;;;;;;5050247;28;20618;-71
2021/01/19 13:04:49;;;;;;;8.63;5.63;;;1.60;99.90;;;;;;5048197;28;20593;-72
2021/01/19 13:07:15;;;;;;;7.93;5.43;;;1.60;99.90;;;;;;5054996;28;20178;-71
2021/01/19 13:09:41;;;;;;;8.73;5.73;;;1.70;99.90;;;;;;5049798;28;20202;-70